Flight Track Log - Related Links

Times and Time Zones

All times are in EDT time to prevent confusion due to time zone crossing. See the CPT7773 flight status page for this flight to view local times or setup timezone preferences in your user account.

Time Position Orientation Groundspeed Altitude Reporting Facility
EDT Latitude Longitude Course Direction KTS MPH feet Rate Location/Type
Wed 07:56:32 PM 44.4942 -108.8047 120° Southeast 127 146 9,900  Level Salt Lake Center
Wed 07:57:34 PM 44.4861 -108.7528 102° East 125 144 10,900 532 Climbing Salt Lake Center
Wed 07:58:00 PM 44.3791 -108.7094 120° Southeast  Level FlightAware Approximate
Wed 07:58:36 PM 44.4603 -108.7147 134° Southeast 132 152 11,000  Level Salt Lake Center
Wed 07:59:00 PM 44.3573 -108.6570 120° Southeast  Level FlightAware Approximate
Wed 07:59:37 PM 44.4247 -108.6619 133° Southeast 154 177 11,000  Level Salt Lake Center
Wed 08:00:00 PM 44.3355 -108.6046 120° Southeast  Level FlightAware Approximate
Wed 08:00:39 PM 44.3967 -108.6181 132° Southeast 159 183 11,100  Level Salt Lake Center
Wed 08:01:00 PM 44.3137 -108.5522 120° Southeast  Level FlightAware Approximate
Wed 08:01:41 PM 44.3642 -108.5667 131° Southeast 159 183 11,100  Level Salt Lake Center
Wed 08:02:43 PM 44.3367 -108.5231 131° Southeast 158 182 11,100 -48 Level Salt Lake Center
Wed 08:03:45 PM 44.3075 -108.4794 133° Southeast 158 182 11,000  Descending Salt Lake Center
Wed 08:04:46 PM 44.2733 -108.4272 132° Southeast 161 185 11,100  Climbing Salt Lake Center
Wed 08:05:48 PM 44.2417 -108.3800 133° Southeast 167 192 11,000  Descending Salt Lake Center
Wed 08:06:50 PM 44.2086 -108.3278 131° Southeast 166 191 11,100  Climbing Salt Lake Center
Wed 08:07:52 PM 44.1819 -108.2839 130° Southeast 161 185 11,000  Descending Salt Lake Center
Wed 08:08:54 PM 44.1492 -108.2336 132° Southeast 158 182 11,100 49 Climbing Salt Lake Center
Wed 08:09:55 PM 44.1214 -108.1903 132° Southeast 157 181 11,100  Level Salt Lake Center
Wed 08:10:57 PM 44.0881 -108.1419 134° Southeast 156 180 11,100  Level Salt Lake Center
Wed 08:11:59 PM 44.0594 -108.0994 133° Southeast 156 180 11,100  Level Salt Lake Center
Wed 08:13:01 PM 44.0239 -108.0467 133° Southeast 162 186 11,100 -49 Level Salt Lake Center
Wed 08:14:02 PM 43.9950 -108.0006 131° Southeast 164 189 11,000 -49 Descending Salt Lake Center
Wed 08:15:04 PM 43.9656 -107.9556 132° Southeast 165 190 11,000  Level Salt Lake Center
Wed 08:16:06 PM 43.9331 -107.9006 129° Southeast 165 190 11,000  Level Salt Lake Center
Wed 08:17:08 PM 43.9094 -107.8500 123° Southeast 164 189 11,000  Level Salt Lake Center
Wed 08:18:09 PM 43.8808 -107.7914 124° Southeast 164 189 11,000  Level Salt Lake Center
Wed 08:19:11 PM 43.8547 -107.7411 126° Southeast 166 191 11,000  Level Salt Lake Center
Wed 08:20:13 PM 43.8256 -107.6861 126° Southeast 162 186 11,000  Level Salt Lake Center
Wed 08:21:15 PM 43.8017 -107.6356 123° Southeast 162 186 11,000  Level Salt Lake Center
Wed 08:22:16 PM 43.7706 -107.5797 128° Southeast 163 188 11,000  Level Salt Lake Center
Wed 08:23:18 PM 43.7458 -107.5311 125° Southeast 163 188 11,000  Level Salt Lake Center
Wed 08:24:20 PM 43.7217 -107.4861 127° Southeast 159 183 11,000  Level Salt Lake Center
Wed 08:25:21 PM 43.6950 -107.4294 123° Southeast 157 181 11,000  Level Salt Lake Center
Wed 08:26:23 PM 43.6711 -107.3833 126° Southeast 156 180 11,000  Level Salt Lake Center
Wed 08:27:25 PM 43.6431 -107.3294 126° Southeast 155 178 11,000  Level Salt Lake Center
Wed 08:28:27 PM 43.6186 -107.2836 126° Southeast 155 178 11,000  Level Salt Lake Center
Wed 08:29:28 PM 43.5911 -107.2325 127° Southeast 152 175 11,000  Level Salt Lake Center
Wed 08:30:30 PM 43.5700 -107.1897 124° Southeast 147 169 11,000  Level Salt Lake Center
Wed 08:31:32 PM 43.5483 -107.1475 125° Southeast 143 165 11,000  Level Salt Lake Center
Wed 08:32:09 PM 43.5342 -107.1164 122° Southeast 144 166 11,000  Level Denver Center
Wed 08:33:11 PM 43.5147 -107.0797 126° Southeast 147 169 11,000  Level Denver Center
Wed 08:34:13 PM 43.4833 -107.0203 126° Southeast 149 171 11,000  Level Denver Center
Wed 08:35:15 PM 43.4547 -106.9681 127° Southeast 151 174 11,000  Level Denver Center
Wed 08:36:17 PM 43.4303 -106.9206 125° Southeast 155 178 11,000  Level Denver Center
Wed 08:37:19 PM 43.4025 -106.8656 125° Southeast 156 180 11,000  Level Denver Center
Wed 08:38:21 PM 43.3736 -106.8306 139° Southeast 149 171 11,000 -242 Level Denver Center
Wed 08:39:23 PM 43.3267 -106.7978 153° Southeast 155 178 10,500 -484 Descending Denver Center
Wed 08:40:25 PM 43.2836 -106.7633 150° Southeast 171 197 10,000 -339 Descending Denver Center
Wed 08:41:27 PM 43.2411 -106.7311 151° Southeast 179 206 9,800 -484 Descending Denver Center
Wed 08:42:29 PM 43.1906 -106.6983 155° Southeast 179 206 9,000 -823 Descending Denver Center
Wed 08:43:31 PM 43.1417 -106.6761 162° South 183 211 8,100 -634 Descending Denver Center
Wed 08:44:32 PM 43.1042 -106.6575 160° South 186 214 7,700 -393 Descending Denver Center
Wed 08:46:00 PM 43.0539 -106.6078 144° Southeast  Level Estimated
Wed 08:53:00 PM 42.9080 -106.4644 144° Southeast  Level Estimated
Wed 08:54:00 PM 42.9080 -106.4644 90° East  Level Estimated
Wed 08:55:00 PM 42.9080 -106.4644 90° East  Level Estimated
Wed 08:56:00 PM 42.9080 -106.4644 90° East  Level Estimated
Wed 08:57:00 PM 42.9080 -106.4644 90° East  Level Estimated
Wed 08:58:00 PM 42.9080 -106.4644 90° East  Level Estimated

Login

Don't have an account? Register now (free) for customized features, flight alerts, and more!